sensor_id;sensor_type;location;lat;lon;timestamp;P1;durP1;ratioP1;P2;durP2;ratioP2
40649;SDS011;26342;42.826;23.992;2023-02-15T00:01:42;6.93;;;3.97;;
40649;SDS011;26342;42.826;23.992;2023-02-15T00:04:08;18.15;;;5.32;;
40649;SDS011;26342;42.826;23.992;2023-02-15T00:06:38;3.63;;;3.33;;
40649;SDS011;26342;42.826;23.992;2023-02-15T00:09:03;3.65;;;2.17;;
40649;SDS011;26342;42.826;23.992;2023-02-15T00:11:34;4.18;;;2.72;;
40649;SDS011;26342;42.826;23.992;2023-02-15T00:14:17;4.05;;;1.90;;
40649;SDS011;26342;42.826;23.992;2023-02-15T00:16:47;12.35;;;6.18;;
40649;SDS011;26342;42.826;23.992;2023-02-15T00:19:15;7.43;;;4.38;;
40649;SDS011;26342;42.826;23.992;2023-02-15T00:21:44;1.98;;;1.80;;
40649;SDS011;26342;42.826;23.992;2023-02-15T00:24:11;7.00;;;3.38;;
40649;SDS011;26342;42.826;23.992;2023-02-15T00:26:39;4.97;;;2.20;;
40649;SDS011;26342;42.826;23.992;2023-02-15T00:29:06;4.47;;;3.08;;
40649;SDS011;26342;42.826;23.992;2023-02-15T00:31:33;3.90;;;1.70;;
40649;SDS011;26342;42.826;23.992;2023-02-15T00:36:42;1.58;;;1.15;;
40649;SDS011;26342;42.826;23.992;2023-02-15T00:39:09;4.72;;;2.20;;
40649;SDS011;26342;42.826;23.992;2023-02-15T00:41:36;10.73;;;3.08;;
40649;SDS011;26342;42.826;23.992;2023-02-15T00:44:02;4.25;;;2.33;;
40649;SDS011;26342;42.826;23.992;2023-02-15T00:46:28;3.60;;;1.33;;
40649;SDS011;26342;42.826;23.992;2023-02-15T00:48:55;0.50;;;0.50;;
40649;SDS011;26342;42.826;23.992;2023-02-15T00:51:20;1.95;;;1.30;;
40649;SDS011;26342;42.826;23.992;2023-02-15T00:53:49;0.65;;;0.52;;
40649;SDS011;26342;42.826;23.992;2023-02-15T00:56:16;0.82;;;0.68;;
40649;SDS011;26342;42.826;23.992;2023-02-15T00:58:44;1.70;;;1.45;;
40649;SDS011;26342;42.826;23.992;2023-02-15T01:01:11;2.53;;;1.95;;
40649;SDS011;26342;42.826;23.992;2023-02-15T01:03:43;3.65;;;2.95;;
40649;SDS011;26342;42.826;23.992;2023-02-15T01:06:12;6.57;;;2.92;;
40649;SDS011;26342;42.826;23.992;2023-02-15T01:08:39;2.80;;;2.60;;
40649;SDS011;26342;42.826;23.992;2023-02-15T01:11:09;3.55;;;2.55;;
40649;SDS011;26342;42.826;23.992;2023-02-15T01:13:38;3.08;;;1.92;;
40649;SDS011;26342;42.826;23.992;2023-02-15T01:16:03;3.35;;;2.80;;
40649;SDS011;26342;42.826;23.992;2023-02-15T01:18:29;5.60;;;3.72;;
40649;SDS011;26342;42.826;23.992;2023-02-15T01:20:56;6.68;;;3.50;;
40649;SDS011;26342;42.826;23.992;2023-02-15T01:23:34;6.18;;;2.88;;
40649;SDS011;26342;42.826;23.992;2023-02-15T01:26:01;3.20;;;2.92;;
40649;SDS011;26342;42.826;23.992;2023-02-15T01:28:29;7.72;;;3.65;;
40649;SDS011;26342;42.826;23.992;2023-02-15T01:30:56;7.47;;;4.80;;
40649;SDS011;26342;42.826;23.992;2023-02-15T01:33:27;9.98;;;3.55;;
40649;SDS011;26342;42.826;23.992;2023-02-15T01:35:56;2.75;;;2.55;;
40649;SDS011;26342;42.826;23.992;2023-02-15T01:38:23;4.72;;;3.55;;
40649;SDS011;26342;42.826;23.992;2023-02-15T01:40:52;3.53;;;2.33;;
40649;SDS011;26342;42.826;23.992;2023-02-15T01:43:43;2.97;;;2.47;;
40649;SDS011;26342;42.826;23.992;2023-02-15T01:46:14;8.55;;;4.65;;
40649;SDS011;26342;42.826;23.992;2023-02-15T01:49:06;9.48;;;4.82;;
40649;SDS011;26342;42.826;23.992;2023-02-15T01:51:34;9.02;;;5.50;;
40649;SDS011;26342;42.826;23.992;2023-02-15T01:54:09;5.00;;;3.42;;
40649;SDS011;26342;42.826;23.992;2023-02-15T01:56:41;11.00;;;5.70;;
40649;SDS011;26342;42.826;23.992;2023-02-15T01:59:08;12.27;;;4.55;;
40649;SDS011;26342;42.826;23.992;2023-02-15T02:01:37;5.68;;;3.80;;
40649;SDS011;26342;42.826;23.992;2023-02-15T02:04:17;13.93;;;6.15;;
40649;SDS011;26342;42.826;23.992;2023-02-15T02:06:46;15.57;;;3.90;;
40649;SDS011;26342;42.826;23.992;2023-02-15T02:09:31;9.00;;;3.40;;
40649;SDS011;26342;42.826;23.992;2023-02-15T02:11:59;1.73;;;1.63;;
40649;SDS011;26342;42.826;23.992;2023-02-15T02:14:27;2.45;;;0.80;;
40649;SDS011;26342;42.826;23.992;2023-02-15T02:39:13;1.73;;;1.63;;
40649;SDS011;26342;42.826;23.992;2023-02-15T02:41:56;2.35;;;1.75;;
40649;SDS011;26342;42.826;23.992;2023-02-15T02:47:10;6.93;;;4.50;;
40649;SDS011;26342;42.826;23.992;2023-02-15T02:49:42;15.75;;;4.20;;
40649;SDS011;26342;42.826;23.992;2023-02-15T02:55:22;13.50;;;5.53;;
40649;SDS011;26342;42.826;23.992;2023-02-15T02:57:57;4.60;;;3.83;;
40649;SDS011;26342;42.826;23.992;2023-02-15T03:00:26;5.57;;;3.95;;
40649;SDS011;26342;42.826;23.992;2023-02-15T03:02:57;7.07;;;4.82;;
40649;SDS011;26342;42.826;23.992;2023-02-15T03:05:37;2.53;;;2.22;;
40649;SDS011;26342;42.826;23.992;2023-02-15T03:08:06;10.80;;;4.95;;
40649;SDS011;26342;42.826;23.992;2023-02-15T03:10:36;4.68;;;3.65;;
40649;SDS011;26342;42.826;23.992;2023-02-15T03:13:04;3.28;;;2.25;;
40649;SDS011;26342;42.826;23.992;2023-02-15T03:15:31;6.32;;;2.33;;
40649;SDS011;26342;42.826;23.992;2023-02-15T03:18:20;9.27;;;4.28;;
40649;SDS011;26342;42.826;23.992;2023-02-15T03:20:51;7.03;;;4.70;;
40649;SDS011;26342;42.826;23.992;2023-02-15T03:23:20;4.15;;;3.72;;
40649;SDS011;26342;42.826;23.992;2023-02-15T03:26:00;2.10;;;1.95;;
40649;SDS011;26342;42.826;23.992;2023-02-15T03:28:47;9.40;;;7.00;;
40649;SDS011;26342;42.826;23.992;2023-02-15T03:31:16;5.95;;;5.30;;
40649;SDS011;26342;42.826;23.992;2023-02-15T03:33:53;9.95;;;7.43;;
40649;SDS011;26342;42.826;23.992;2023-02-15T03:36:24;2.72;;;2.53;;
40649;SDS011;26342;42.826;23.992;2023-02-15T03:39:11;8.82;;;3.90;;
40649;SDS011;26342;42.826;23.992;2023-02-15T03:41:40;6.07;;;5.28;;
40649;SDS011;26342;42.826;23.992;2023-02-15T03:44:26;3.22;;;2.97;;
40649;SDS011;26342;42.826;23.992;2023-02-15T03:47:04;5.90;;;5.43;;
40649;SDS011;26342;42.826;23.992;2023-02-15T03:49:42;16.52;;;7.28;;
40649;SDS011;26342;42.826;23.992;2023-02-15T03:53:02;20.50;;;6.75;;
40649;SDS011;26342;42.826;23.992;2023-02-15T03:55:30;7.72;;;5.32;;
40649;SDS011;26342;42.826;23.992;2023-02-15T03:57:56;8.43;;;6.45;;
40649;SDS011;26342;42.826;23.992;2023-02-15T04:00:43;8.07;;;3.55;;
40649;SDS011;26342;42.826;23.992;2023-02-15T04:06:05;6.78;;;3.08;;
40649;SDS011;26342;42.826;23.992;2023-02-15T04:08:31;6.68;;;4.80;;
40649;SDS011;26342;42.826;23.992;2023-02-15T04:11:15;3.67;;;3.10;;
40649;SDS011;26342;42.826;23.992;2023-02-15T04:13:41;6.57;;;4.20;;
40649;SDS011;26342;42.826;23.992;2023-02-15T04:16:08;6.68;;;4.25;;
40649;SDS011;26342;42.826;23.992;2023-02-15T04:18:42;11.40;;;5.65;;
40649;SDS011;26342;42.826;23.992;2023-02-15T04:21:27;6.25;;;3.67;;
40649;SDS011;26342;42.826;23.992;2023-02-15T04:24:13;6.28;;;5.05;;
40649;SDS011;26342;42.826;23.992;2023-02-15T04:26:58;9.30;;;3.78;;
40649;SDS011;26342;42.826;23.992;2023-02-15T04:29:26;8.00;;;5.47;;
40649;SDS011;26342;42.826;23.992;2023-02-15T04:31:54;7.72;;;6.95;;
40649;SDS011;26342;42.826;23.992;2023-02-15T04:34:21;12.23;;;5.13;;
40649;SDS011;26342;42.826;23.992;2023-02-15T04:36:47;4.18;;;3.05;;
40649;SDS011;26342;42.826;23.992;2023-02-15T04:39:13;6.50;;;3.53;;
40649;SDS011;26342;42.826;23.992;2023-02-15T04:41:40;3.63;;;3.33;;
40649;SDS011;26342;42.826;23.992;2023-02-15T04:44:05;31.02;;;14.80;;
40649;SDS011;26342;42.826;23.992;2023-02-15T04:46:31;12.10;;;6.55;;
40649;SDS011;26342;42.826;23.992;2023-02-15T04:48:56;6.90;;;4.43;;
40649;SDS011;26342;42.826;23.992;2023-02-15T04:51:22;6.32;;;4.30;;
40649;SDS011;26342;42.826;23.992;2023-02-15T04:53:47;10.10;;;6.00;;
40649;SDS011;26342;42.826;23.992;2023-02-15T04:56:13;11.77;;;6.40;;
40649;SDS011;26342;42.826;23.992;2023-02-15T04:58:38;12.07;;;7.70;;
40649;SDS011;26342;42.826;23.992;2023-02-15T05:01:08;13.23;;;7.38;;
40649;SDS011;26342;42.826;23.992;2023-02-15T05:03:35;6.28;;;5.68;;
40649;SDS011;26342;42.826;23.992;2023-02-15T05:06:00;11.32;;;8.50;;
40649;SDS011;26342;42.826;23.992;2023-02-15T05:08:26;10.43;;;5.53;;
40649;SDS011;26342;42.826;23.992;2023-02-15T05:10:52;59.35;;;30.45;;
40649;SDS011;26342;42.826;23.992;2023-02-15T05:13:17;26.52;;;15.60;;
40649;SDS011;26342;42.826;23.992;2023-02-15T05:15:51;7.53;;;5.38;;
40649;SDS011;26342;42.826;23.992;2023-02-15T05:18:22;8.23;;;3.20;;
40649;SDS011;26342;42.826;23.992;2023-02-15T05:20:48;13.35;;;5.95;;
40649;SDS011;26342;42.826;23.992;2023-02-15T05:23:14;11.95;;;4.18;;
40649;SDS011;26342;42.826;23.992;2023-02-15T05:25:45;6.38;;;5.55;;
40649;SDS011;26342;42.826;23.992;2023-02-15T05:28:31;7.88;;;3.58;;
40649;SDS011;26342;42.826;23.992;2023-02-15T05:33:27;9.40;;;7.00;;
40649;SDS011;26342;42.826;23.992;2023-02-15T05:35:54;8.32;;;4.65;;
40649;SDS011;26342;42.826;23.992;2023-02-15T05:38:19;12.50;;;6.80;;
40649;SDS011;26342;42.826;23.992;2023-02-15T05:40:45;8.15;;;7.18;;
40649;SDS011;26342;42.826;23.992;2023-02-15T05:43:10;6.93;;;4.53;;
40649;SDS011;26342;42.826;23.992;2023-02-15T05:45:36;4.35;;;3.95;;
40649;SDS011;26342;42.826;23.992;2023-02-15T05:48:01;11.25;;;7.25;;
40649;SDS011;26342;42.826;23.992;2023-02-15T05:50:28;10.07;;;6.68;;
40649;SDS011;26342;42.826;23.992;2023-02-15T05:52:54;10.60;;;6.38;;
40649;SDS011;26342;42.826;23.992;2023-02-15T05:55:19;4.25;;;3.72;;
40649;SDS011;26342;42.826;23.992;2023-02-15T05:57:46;3.30;;;3.00;;
40649;SDS011;26342;42.826;23.992;2023-02-15T06:00:13;7.18;;;4.78;;
40649;SDS011;26342;42.826;23.992;2023-02-15T06:02:40;8.50;;;5.65;;
40649;SDS011;26342;42.826;23.992;2023-02-15T06:05:06;16.63;;;9.00;;
40649;SDS011;26342;42.826;23.992;2023-02-15T06:07:32;18.30;;;8.30;;
40649;SDS011;26342;42.826;23.992;2023-02-15T06:09:58;9.70;;;8.52;;
40649;SDS011;26342;42.826;23.992;2023-02-15T06:12:24;10.45;;;8.20;;
40649;SDS011;26342;42.826;23.992;2023-02-15T06:14:50;13.98;;;10.32;;
40649;SDS011;26342;42.826;23.992;2023-02-15T06:17:17;10.70;;;9.50;;
40649;SDS011;26342;42.826;23.992;2023-02-15T06:19:42;15.10;;;10.25;;
40649;SDS011;26342;42.826;23.992;2023-02-15T06:22:10;9.70;;;7.50;;
40649;SDS011;26342;42.826;23.992;2023-02-15T06:24:35;13.07;;;8.93;;
40649;SDS011;26342;42.826;23.992;2023-02-15T06:27:01;15.98;;;11.00;;
40649;SDS011;26342;42.826;23.992;2023-02-15T06:29:27;16.88;;;8.73;;
40649;SDS011;26342;42.826;23.992;2023-02-15T06:31:53;16.52;;;8.32;;
40649;SDS011;26342;42.826;23.992;2023-02-15T06:34:19;13.52;;;7.13;;
40649;SDS011;26342;42.826;23.992;2023-02-15T06:36:44;17.83;;;9.38;;
40649;SDS011;26342;42.826;23.992;2023-02-15T06:39:09;11.27;;;9.45;;
40649;SDS011;26342;42.826;23.992;2023-02-15T06:41:35;17.48;;;8.82;;
40649;SDS011;26342;42.826;23.992;2023-02-15T06:44:00;20.58;;;10.07;;
40649;SDS011;26342;42.826;23.992;2023-02-15T06:46:27;19.45;;;11.02;;
40649;SDS011;26342;42.826;23.992;2023-02-15T06:48:53;19.23;;;14.07;;
40649;SDS011;26342;42.826;23.992;2023-02-15T06:51:18;13.98;;;10.55;;
40649;SDS011;26342;42.826;23.992;2023-02-15T06:53:44;17.38;;;13.38;;
40649;SDS011;26342;42.826;23.992;2023-02-15T06:56:10;13.07;;;9.95;;
40649;SDS011;26342;42.826;23.992;2023-02-15T06:58:38;12.77;;;11.48;;
40649;SDS011;26342;42.826;23.992;2023-02-15T07:01:05;14.10;;;8.57;;
40649;SDS011;26342;42.826;23.992;2023-02-15T07:03:32;18.60;;;11.73;;
40649;SDS011;26342;42.826;23.992;2023-02-15T07:05:59;12.32;;;7.97;;
40649;SDS011;26342;42.826;23.992;2023-02-15T07:08:26;18.67;;;9.18;;
40649;SDS011;26342;42.826;23.992;2023-02-15T07:10:53;17.52;;;10.80;;
40649;SDS011;26342;42.826;23.992;2023-02-15T07:13:41;11.98;;;8.07;;
40649;SDS011;26342;42.826;23.992;2023-02-15T07:16:07;10.63;;;8.27;;
40649;SDS011;26342;42.826;23.992;2023-02-15T07:18:34;13.15;;;8.38;;
40649;SDS011;26342;42.826;23.992;2023-02-15T07:21:00;23.52;;;8.35;;
40649;SDS011;26342;42.826;23.992;2023-02-15T07:23:25;13.77;;;10.85;;
40649;SDS011;26342;42.826;23.992;2023-02-15T07:25:58;11.73;;;9.32;;
40649;SDS011;26342;42.826;23.992;2023-02-15T07:30:50;6.95;;;6.22;;
40649;SDS011;26342;42.826;23.992;2023-02-15T07:33:17;28.88;;;16.80;;
40649;SDS011;26342;42.826;23.992;2023-02-15T07:47:12;39.42;;;22.05;;
40649;SDS011;26342;42.826;23.992;2023-02-15T07:49:37;27.83;;;20.38;;
40649;SDS011;26342;42.826;23.992;2023-02-15T07:52:03;39.30;;;22.27;;
40649;SDS011;26342;42.826;23.992;2023-02-15T07:54:29;40.00;;;23.00;;
40649;SDS011;26342;42.826;23.992;2023-02-15T07:56:54;44.65;;;18.00;;
40649;SDS011;26342;42.826;23.992;2023-02-15T07:59:20;16.33;;;11.55;;
40649;SDS011;26342;42.826;23.992;2023-02-15T08:01:45;10.55;;;6.38;;
40649;SDS011;26342;42.826;23.992;2023-02-15T08:04:10;6.00;;;4.88;;
40649;SDS011;26342;42.826;23.992;2023-02-15T08:06:36;11.38;;;9.00;;
40649;SDS011;26342;42.826;23.992;2023-02-15T08:09:06;28.13;;;12.85;;
40649;SDS011;26342;42.826;23.992;2023-02-15T08:11:34;20.33;;;11.35;;
40649;SDS011;26342;42.826;23.992;2023-02-15T08:19:01;18.23;;;8.43;;
40649;SDS011;26342;42.826;23.992;2023-02-15T08:21:38;6.07;;;4.55;;
40649;SDS011;26342;42.826;23.992;2023-02-15T08:24:05;4.38;;;3.50;;
40649;SDS011;26342;42.826;23.992;2023-02-15T08:26:32;7.22;;;6.00;;
40649;SDS011;26342;42.826;23.992;2023-02-15T08:28:58;10.35;;;7.78;;
40649;SDS011;26342;42.826;23.992;2023-02-15T08:31:24;9.15;;;5.93;;
40649;SDS011;26342;42.826;23.992;2023-02-15T08:33:51;7.05;;;5.07;;
40649;SDS011;26342;42.826;23.992;2023-02-15T08:36:19;13.80;;;7.70;;
40649;SDS011;26342;42.826;23.992;2023-02-15T08:38:46;9.52;;;7.78;;
40649;SDS011;26342;42.826;23.992;2023-02-15T08:41:14;7.03;;;5.88;;
40649;SDS011;26342;42.826;23.992;2023-02-15T08:43:44;19.75;;;6.10;;
40649;SDS011;26342;42.826;23.992;2023-02-15T08:46:11;6.05;;;3.55;;
40649;SDS011;26342;42.826;23.992;2023-02-15T08:48:37;2.67;;;2.17;;
40649;SDS011;26342;42.826;23.992;2023-02-15T08:51:06;10.98;;;3.58;;
40649;SDS011;26342;42.826;23.992;2023-02-15T08:53:37;6.32;;;3.22;;
40649;SDS011;26342;42.826;23.992;2023-02-15T08:56:04;5.00;;;3.95;;
40649;SDS011;26342;42.826;23.992;2023-02-15T08:58:30;4.22;;;3.30;;
40649;SDS011;26342;42.826;23.992;2023-02-15T09:00:58;3.25;;;2.95;;
40649;SDS011;26342;42.826;23.992;2023-02-15T09:03:24;13.70;;;7.45;;
40649;SDS011;26342;42.826;23.992;2023-02-15T09:05:49;9.40;;;5.90;;
40649;SDS011;26342;42.826;23.992;2023-02-15T09:08:15;1.95;;;1.70;;
40649;SDS011;26342;42.826;23.992;2023-02-15T09:10:41;2.00;;;1.35;;
40649;SDS011;26342;42.826;23.992;2023-02-15T09:13:06;1.63;;;1.33;;
40649;SDS011;26342;42.826;23.992;2023-02-15T09:15:32;0.47;;;0.47;;
40649;SDS011;26342;42.826;23.992;2023-02-15T09:17:58;1.38;;;1.27;;
40649;SDS011;26342;42.826;23.992;2023-02-15T09:20:30;2.63;;;2.20;;
40649;SDS011;26342;42.826;23.992;2023-02-15T09:22:56;2.05;;;1.85;;
40649;SDS011;26342;42.826;23.992;2023-02-15T09:25:21;5.78;;;1.65;;
40649;SDS011;26342;42.826;23.992;2023-02-15T09:27:47;3.00;;;1.90;;
40649;SDS011;26342;42.826;23.992;2023-02-15T09:30:12;2.70;;;2.35;;
40649;SDS011;26342;42.826;23.992;2023-02-15T09:32:38;0.60;;;0.57;;
40649;SDS011;26342;42.826;23.992;2023-02-15T09:35:04;1.75;;;1.38;;
40649;SDS011;26342;42.826;23.992;2023-02-15T09:37:30;4.40;;;2.15;;
40649;SDS011;26342;42.826;23.992;2023-02-15T09:39:56;2.15;;;1.38;;
40649;SDS011;26342;42.826;23.992;2023-02-15T09:50:26;2.75;;;1.23;;
40649;SDS011;26342;42.826;23.992;2023-02-15T09:56:15;1.88;;;1.13;;
40649;SDS011;26342;42.826;23.992;2023-02-15T10:02:05;3.08;;;2.08;;
40649;SDS011;26342;42.826;23.992;2023-02-15T10:07:54;1.65;;;1.02;;
40649;SDS011;26342;42.826;23.992;2023-02-15T10:21:46;2.67;;;1.35;;
40649;SDS011;26342;42.826;23.992;2023-02-15T10:26:47;2.72;;;2.42;;
40649;SDS011;26342;42.826;23.992;2023-02-15T10:29:31;2.45;;;1.60;;
40649;SDS011;26342;42.826;23.992;2023-02-15T10:34:38;2.95;;;1.58;;
40649;SDS011;26342;42.826;23.992;2023-02-15T10:50:20;4.90;;;2.05;;
40649;SDS011;26342;42.826;23.992;2023-02-15T11:01:02;2.00;;;1.60;;
40649;SDS011;26342;42.826;23.992;2023-02-15T11:06:26;3.95;;;1.75;;
40649;SDS011;26342;42.826;23.992;2023-02-15T11:08:54;3.78;;;2.85;;
40649;SDS011;26342;42.826;23.992;2023-02-15T11:11:51;4.40;;;1.73;;
40649;SDS011;26342;42.826;23.992;2023-02-15T11:16:48;2.05;;;1.65;;
40649;SDS011;26342;42.826;23.992;2023-02-15T11:19:20;2.25;;;1.52;;
40649;SDS011;26342;42.826;23.992;2023-02-15T11:21:50;2.78;;;1.48;;
40649;SDS011;26342;42.826;23.992;2023-02-15T11:24:20;1.33;;;1.27;;
40649;SDS011;26342;42.826;23.992;2023-02-15T11:29:50;3.28;;;1.38;;
40649;SDS011;26342;42.826;23.992;2023-02-15T11:32:40;1.13;;;1.02;;
40649;SDS011;26342;42.826;23.992;2023-02-15T11:37:45;1.02;;;0.82;;
40649;SDS011;26342;42.826;23.992;2023-02-15T11:40:24;1.60;;;1.35;;
40649;SDS011;26342;42.826;23.992;2023-02-15T11:43:11;0.75;;;0.75;;
40649;SDS011;26342;42.826;23.992;2023-02-15T11:45:42;1.58;;;1.48;;
40649;SDS011;26342;42.826;23.992;2023-02-15T11:48:11;1.42;;;1.02;;
40649;SDS011;26342;42.826;23.992;2023-02-15T11:50:39;1.98;;;1.10;;
40649;SDS011;26342;42.826;23.992;2023-02-15T11:53:11;2.58;;;1.95;;
40649;SDS011;26342;42.826;23.992;2023-02-15T11:55:41;1.92;;;1.77;;
40649;SDS011;26342;42.826;23.992;2023-02-15T12:01:00;1.88;;;1.20;;
40649;SDS011;26342;42.826;23.992;2023-02-15T12:03:39;3.95;;;1.95;;
40649;SDS011;26342;42.826;23.992;2023-02-15T12:06:15;2.45;;;1.67;;
40649;SDS011;26342;42.826;23.992;2023-02-15T12:08:48;1.88;;;1.48;;
40649;SDS011;26342;42.826;23.992;2023-02-15T12:11:29;3.20;;;1.40;;
40649;SDS011;26342;42.826;23.992;2023-02-15T12:13:59;1.60;;;0.80;;
40649;SDS011;26342;42.826;23.992;2023-02-15T12:16:28;3.00;;;0.80;;
40649;SDS011;26342;42.826;23.992;2023-02-15T12:18:57;4.18;;;1.05;;
40649;SDS011;26342;42.826;23.992;2023-02-15T12:23:54;2.00;;;1.80;;
40649;SDS011;26342;42.826;23.992;2023-02-15T12:26:23;0.73;;;0.73;;
40649;SDS011;26342;42.826;23.992;2023-02-15T12:28:50;1.73;;;1.25;;
40649;SDS011;26342;42.826;23.992;2023-02-15T12:33:50;3.92;;;2.10;;
40649;SDS011;26342;42.826;23.992;2023-02-15T12:36:20;1.20;;;1.10;;
40649;SDS011;26342;42.826;23.992;2023-02-15T12:41:38;1.17;;;1.00;;
40649;SDS011;26342;42.826;23.992;2023-02-15T12:44:19;3.58;;;2.30;;
40649;SDS011;26342;42.826;23.992;2023-02-15T12:49:25;5.10;;;4.03;;
40649;SDS011;26342;42.826;23.992;2023-02-15T12:51:53;3.45;;;2.22;;
40649;SDS011;26342;42.826;23.992;2023-02-15T12:54:34;3.35;;;2.42;;
40649;SDS011;26342;42.826;23.992;2023-02-15T13:02:52;2.72;;;1.92;;
40649;SDS011;26342;42.826;23.992;2023-02-15T13:05:41;4.13;;;2.85;;
40649;SDS011;26342;42.826;23.992;2023-02-15T13:08:15;1.40;;;1.30;;
40649;SDS011;26342;42.826;23.992;2023-02-15T13:10:57;3.05;;;1.50;;
40649;SDS011;26342;42.826;23.992;2023-02-15T13:13:50;2.78;;;0.77;;
40649;SDS011;26342;42.826;23.992;2023-02-15T13:16:21;7.22;;;2.58;;
40649;SDS011;26342;42.826;23.992;2023-02-15T13:18:55;1.30;;;1.15;;
40649;SDS011;26342;42.826;23.992;2023-02-15T13:21:25;1.30;;;1.05;;
40649;SDS011;26342;42.826;23.992;2023-02-15T13:23:56;2.00;;;1.40;;
40649;SDS011;26342;42.826;23.992;2023-02-15T13:26:26;1.50;;;1.25;;
40649;SDS011;26342;42.826;23.992;2023-02-15T13:28:56;0.60;;;0.60;;
40649;SDS011;26342;42.826;23.992;2023-02-15T13:31:27;2.45;;;1.42;;
40649;SDS011;26342;42.826;23.992;2023-02-15T13:34:10;0.90;;;0.50;;
40649;SDS011;26342;42.826;23.992;2023-02-15T13:39:40;0.60;;;0.60;;
40649;SDS011;26342;42.826;23.992;2023-02-15T13:42:14;7.32;;;1.58;;
40649;SDS011;26342;42.826;23.992;2023-02-15T13:52:46;1.15;;;1.05;;
40649;SDS011;26342;42.826;23.992;2023-02-15T14:01:13;0.65;;;0.65;;
40649;SDS011;26342;42.826;23.992;2023-02-15T14:04:15;1.33;;;1.23;;
40649;SDS011;26342;42.826;23.992;2023-02-15T14:22:58;3.38;;;2.05;;
40649;SDS011;26342;42.826;23.992;2023-02-15T14:25:47;0.95;;;0.68;;
40649;SDS011;26342;42.826;23.992;2023-02-15T14:28:25;2.05;;;1.67;;
40649;SDS011;26342;42.826;23.992;2023-02-15T14:30:58;6.28;;;2.38;;
40649;SDS011;26342;42.826;23.992;2023-02-15T14:33:35;3.58;;;1.63;;
40649;SDS011;26342;42.826;23.992;2023-02-15T14:36:05;2.30;;;2.13;;
40649;SDS011;26342;42.826;23.992;2023-02-15T14:41:16;7.65;;;2.92;;
40649;SDS011;26342;42.826;23.992;2023-02-15T14:54:07;0.63;;;0.45;;
40649;SDS011;26342;42.826;23.992;2023-02-15T14:56:33;1.85;;;1.75;;
40649;SDS011;26342;42.826;23.992;2023-02-15T14:59:00;5.03;;;2.63;;
40649;SDS011;26342;42.826;23.992;2023-02-15T15:01:38;5.22;;;3.30;;
40649;SDS011;26342;42.826;23.992;2023-02-15T15:04:21;23.55;;;8.55;;
40649;SDS011;26342;42.826;23.992;2023-02-15T15:09:46;15.82;;;5.88;;
40649;SDS011;26342;42.826;23.992;2023-02-15T15:14:49;6.25;;;5.18;;
40649;SDS011;26342;42.826;23.992;2023-02-15T15:20:00;4.00;;;2.38;;
40649;SDS011;26342;42.826;23.992;2023-02-15T15:22:32;4.60;;;3.08;;
40649;SDS011;26342;42.826;23.992;2023-02-15T15:24:59;3.78;;;2.60;;
40649;SDS011;26342;42.826;23.992;2023-02-15T15:32:47;0.52;;;0.52;;
40649;SDS011;26342;42.826;23.992;2023-02-15T15:48:49;1.75;;;1.38;;
40649;SDS011;26342;42.826;23.992;2023-02-15T15:51:27;3.70;;;2.38;;
40649;SDS011;26342;42.826;23.992;2023-02-15T15:53:56;5.50;;;3.63;;
40649;SDS011;26342;42.826;23.992;2023-02-15T15:56:26;6.88;;;4.55;;
40649;SDS011;26342;42.826;23.992;2023-02-15T15:58:57;3.85;;;3.05;;
40649;SDS011;26342;42.826;23.992;2023-02-15T16:01:29;9.57;;;4.55;;
40649;SDS011;26342;42.826;23.992;2023-02-15T16:03:57;5.40;;;3.20;;
40649;SDS011;26342;42.826;23.992;2023-02-15T16:06:36;13.13;;;3.08;;
40649;SDS011;26342;42.826;23.992;2023-02-15T16:09:36;4.38;;;2.42;;
40649;SDS011;26342;42.826;23.992;2023-02-15T16:11:55;3.97;;;2.78;;
40649;SDS011;26342;42.826;23.992;2023-02-15T16:14:30;6.25;;;4.93;;
40649;SDS011;26342;42.826;23.992;2023-02-15T16:17:01;6.18;;;4.22;;
40649;SDS011;26342;42.826;23.992;2023-02-15T16:19:32;10.13;;;3.85;;
40649;SDS011;26342;42.826;23.992;2023-02-15T16:22:00;5.78;;;3.72;;
40649;SDS011;26342;42.826;23.992;2023-02-15T16:24:45;9.55;;;4.40;;
40649;SDS011;26342;42.826;23.992;2023-02-15T16:33:06;8.57;;;4.18;;
40649;SDS011;26342;42.826;23.992;2023-02-15T16:35:32;8.55;;;3.45;;
40649;SDS011;26342;42.826;23.992;2023-02-15T16:37:58;8.73;;;3.15;;
40649;SDS011;26342;42.826;23.992;2023-02-15T16:42:50;2.83;;;2.40;;
40649;SDS011;26342;42.826;23.992;2023-02-15T16:45:18;3.97;;;3.17;;
40649;SDS011;26342;42.826;23.992;2023-02-15T16:47:48;4.72;;;3.15;;
40649;SDS011;26342;42.826;23.992;2023-02-15T16:50:17;4.03;;;3.55;;
40649;SDS011;26342;42.826;23.992;2023-02-15T16:52:46;7.65;;;2.30;;
40649;SDS011;26342;42.826;23.992;2023-02-15T16:55:25;7.57;;;2.45;;
40649;SDS011;26342;42.826;23.992;2023-02-15T16:57:56;9.05;;;2.95;;
40649;SDS011;26342;42.826;23.992;2023-02-15T17:00:26;2.58;;;2.08;;
40649;SDS011;26342;42.826;23.992;2023-02-15T17:03:00;1.38;;;1.27;;
40649;SDS011;26342;42.826;23.992;2023-02-15T17:05:31;2.10;;;1.50;;
40649;SDS011;26342;42.826;23.992;2023-02-15T17:08:17;6.10;;;2.80;;
40649;SDS011;26342;42.826;23.992;2023-02-15T17:13:38;2.22;;;1.52;;
40649;SDS011;26342;42.826;23.992;2023-02-15T17:21:10;3.67;;;1.70;;
40649;SDS011;26342;42.826;23.992;2023-02-15T17:23:45;1.10;;;1.08;;
40649;SDS011;26342;42.826;23.992;2023-02-15T17:26:14;1.70;;;1.02;;
40649;SDS011;26342;42.826;23.992;2023-02-15T17:28:45;2.95;;;2.67;;
40649;SDS011;26342;42.826;23.992;2023-02-15T17:31:13;6.43;;;2.22;;
40649;SDS011;26342;42.826;23.992;2023-02-15T17:33:41;11.27;;;3.22;;
40649;SDS011;26342;42.826;23.992;2023-02-15T17:36:08;7.72;;;3.05;;
40649;SDS011;26342;42.826;23.992;2023-02-15T17:38:39;4.28;;;2.38;;
40649;SDS011;26342;42.826;23.992;2023-02-15T17:41:05;4.30;;;3.58;;
40649;SDS011;26342;42.826;23.992;2023-02-15T17:43:31;4.57;;;3.10;;
40649;SDS011;26342;42.826;23.992;2023-02-15T17:45:56;11.98;;;4.78;;
40649;SDS011;26342;42.826;23.992;2023-02-15T17:48:27;7.57;;;4.63;;
40649;SDS011;26342;42.826;23.992;2023-02-15T17:50:59;3.85;;;2.30;;
40649;SDS011;26342;42.826;23.992;2023-02-15T17:53:26;3.72;;;2.85;;
40649;SDS011;26342;42.826;23.992;2023-02-15T17:55:52;1.08;;;1.08;;
40649;SDS011;26342;42.826;23.992;2023-02-15T17:58:18;8.90;;;2.50;;
40649;SDS011;26342;42.826;23.992;2023-02-15T18:00:45;4.72;;;1.98;;
40649;SDS011;26342;42.826;23.992;2023-02-15T18:03:39;1.83;;;1.67;;
40649;SDS011;26342;42.826;23.992;2023-02-15T18:06:26;5.85;;;2.17;;
40649;SDS011;26342;42.826;23.992;2023-02-15T18:09:11;2.83;;;1.83;;
40649;SDS011;26342;42.826;23.992;2023-02-15T18:14:42;3.25;;;1.55;;
40649;SDS011;26342;42.826;23.992;2023-02-15T18:17:09;1.38;;;1.27;;
40649;SDS011;26342;42.826;23.992;2023-02-15T18:19:38;0.82;;;0.82;;
40649;SDS011;26342;42.826;23.992;2023-02-15T18:22:11;4.32;;;1.77;;
40649;SDS011;26342;42.826;23.992;2023-02-15T18:24:38;4.00;;;2.55;;
40649;SDS011;26342;42.826;23.992;2023-02-15T18:27:04;2.03;;;1.67;;
40649;SDS011;26342;42.826;23.992;2023-02-15T18:29:29;1.27;;;1.17;;
40649;SDS011;26342;42.826;23.992;2023-02-15T18:31:55;1.75;;;0.90;;
40649;SDS011;26342;42.826;23.992;2023-02-15T18:36:51;3.13;;;1.67;;
40649;SDS011;26342;42.826;23.992;2023-02-15T18:42:22;2.63;;;1.67;;
40649;SDS011;26342;42.826;23.992;2023-02-15T18:44:54;1.75;;;1.17;;
40649;SDS011;26342;42.826;23.992;2023-02-15T18:47:21;0.63;;;0.63;;
40649;SDS011;26342;42.826;23.992;2023-02-15T18:49:47;4.15;;;1.83;;